createdAt,value
2018-05-16T00:02:05.797Z,25.83
2018-05-16T00:04:33.411Z,24.25
2018-05-16T00:07:00.986Z,26.17
2018-05-16T00:09:28.589Z,25.75
2018-05-16T00:11:56.141Z,26.65
2018-05-16T00:14:23.815Z,26.23
2018-05-16T00:16:51.386Z,27.77
2018-05-16T00:19:18.953Z,27.35
2018-05-16T00:21:47.223Z,29.65
2018-05-16T00:24:14.773Z,29.30
2018-05-16T00:26:42.311Z,27.92
2018-05-16T00:29:09.905Z,29.77
2018-05-16T00:31:37.456Z,29.90
2018-05-16T00:34:04.995Z,31.35
2018-05-16T00:36:32.615Z,30.75
2018-05-16T00:39:00.167Z,32.70
2018-05-16T00:41:27.710Z,32.50
2018-05-16T00:43:55.225Z,32.78
2018-05-16T00:46:23.554Z,29.63
2018-05-16T00:48:51.109Z,30.95
2018-05-16T00:51:31.394Z,29.83
2018-05-16T00:53:58.976Z,30.12
2018-05-16T00:56:27.305Z,31.35
2018-05-16T00:58:54.883Z,33.22
2018-05-16T01:01:22.498Z,32.45
2018-05-16T01:03:50.067Z,34.80
2018-05-16T01:06:17.611Z,34.92
2018-05-16T01:08:45.206Z,36.83
2018-05-16T01:11:12.735Z,37.10
2018-05-16T01:13:40.285Z,34.63
2018-05-16T01:16:08.637Z,34.15
2018-05-16T01:18:36.299Z,34.47
2018-05-16T01:21:03.863Z,33.35
2018-05-16T01:23:31.435Z,36.70
2018-05-16T01:25:59.143Z,34.97
2018-05-16T01:28:26.763Z,38.20
2018-05-16T01:30:54.430Z,38.17
2018-05-16T01:33:22.792Z,38.35
2018-05-16T01:35:50.390Z,37.50
2018-05-16T01:38:17.965Z,37.35
2018-05-16T01:40:45.495Z,39.72
2018-05-16T01:43:13.021Z,36.97
2018-05-16T01:45:40.555Z,37.47
2018-05-16T01:48:08.091Z,39.20
2018-05-16T01:50:35.670Z,37.58
2018-05-16T01:53:03.196Z,42.75
2018-05-16T01:55:30.720Z,40.92
2018-05-16T01:57:58.362Z,40.40
2018-05-16T02:00:25.898Z,43.20
2018-05-16T02:02:53.419Z,42.62
2018-05-16T02:05:20.963Z,43.50
2018-05-16T02:07:48.485Z,42.60
2018-05-16T02:10:16.040Z,44.35
2018-05-16T02:12:43.570Z,44.58
2018-05-16T02:15:11.919Z,42.58
2018-05-16T02:17:39.465Z,43.47
2018-05-16T02:20:07.011Z,42.65
2018-05-16T02:22:34.511Z,43.05
2018-05-16T02:25:02.048Z,40.90
2018-05-16T02:27:29.597Z,37.90
2018-05-16T02:29:57.130Z,41.63
2018-05-16T02:32:24.665Z,41.67
2018-05-16T02:34:52.951Z,45.55
2018-05-16T02:37:21.262Z,40.85
2018-05-16T02:39:49.541Z,43.50
2018-05-16T02:42:17.092Z,48.60
2018-05-16T02:44:44.621Z,45.58
2018-05-16T02:47:12.905Z,46.40
2018-05-16T02:49:41.221Z,47.45
2018-05-16T02:52:08.745Z,44.60
2018-05-16T02:54:36.316Z,49.40
2018-05-16T02:57:03.838Z,49.75
2018-05-16T02:59:31.374Z,47.25
2018-05-16T03:01:58.891Z,44.22
2018-05-16T03:04:26.416Z,45.08
2018-05-16T03:06:53.934Z,45.63
2018-05-16T03:09:21.503Z,50.92
2018-05-16T03:11:49.035Z,48.03
2018-05-16T03:14:16.576Z,54.33
2018-05-16T03:16:44.929Z,52.67
2018-05-16T03:19:12.466Z,49.60
2018-05-16T03:21:40.005Z,50.55
2018-05-16T03:24:07.672Z,51.90
2018-05-16T03:26:35.208Z,49.25
2018-05-16T03:29:02.755Z,49.45
2018-05-16T03:31:31.034Z,47.17
2018-05-16T03:33:59.343Z,47.92
2018-05-16T03:36:26.877Z,48.58
2018-05-16T03:38:54.408Z,46.40
2018-05-16T03:41:21.953Z,46.95
2018-05-16T03:43:49.470Z,49.22
2018-05-16T03:46:17.010Z,47.28
2018-05-16T03:48:45.316Z,51.85
2018-05-16T03:51:12.838Z,53.25
2018-05-16T03:53:40.394Z,48.42
2018-05-16T03:56:07.923Z,49.90
2018-05-16T03:58:47.476Z,47.03
2018-05-16T04:01:26.699Z,48.85
2018-05-16T04:04:05.996Z,49.63
2018-05-16T04:06:33.520Z,48.70
2018-05-16T04:09:01.025Z,51.28
2018-05-16T04:11:30.890Z,47.53
2018-05-16T04:13:58.422Z,47.78
2018-05-16T04:16:25.971Z,46.90
2018-05-16T04:18:53.578Z,43.72
2018-05-16T04:21:21.115Z,45.10
2018-05-16T04:23:48.681Z,45.38
2018-05-16T04:26:16.215Z,46.28
2018-05-16T04:28:43.793Z,48.22
2018-05-16T04:31:11.301Z,48.97
2018-05-16T04:33:38.844Z,45.97
2018-05-16T04:36:07.143Z,46.37
2018-05-16T04:38:34.686Z,42.55
2018-05-16T04:41:02.221Z,43.30
2018-05-16T04:43:29.860Z,44.92
2018-05-16T04:45:57.386Z,44.42
2018-05-16T04:48:24.916Z,45.12
2018-05-16T04:50:52.458Z,45.80
2018-05-16T04:53:19.990Z,42.93
2018-05-16T04:55:47.533Z,41.30
2018-05-16T04:58:15.077Z,39.53
2018-05-16T05:00:42.645Z,42.80
2018-05-16T05:03:10.171Z,45.45
2018-05-16T05:05:37.707Z,40.37
2018-05-16T05:08:05.241Z,40.78
2018-05-16T05:10:36.703Z,40.90
2018-05-16T05:13:04.263Z,41.17
2018-05-16T05:15:31.795Z,42.35
2018-05-16T05:17:59.328Z,39.70
2018-05-16T05:20:26.883Z,38.22
2018-05-16T05:22:54.411Z,36.00
2018-05-16T05:25:21.934Z,38.20
2018-05-16T05:27:49.486Z,37.53
2018-05-16T05:30:17.113Z,37.87
2018-05-16T05:32:44.635Z,39.35
2018-05-16T05:35:12.220Z,37.45
2018-05-16T05:37:39.800Z,39.97
2018-05-16T05:40:07.786Z,39.50
2018-05-16T05:42:36.077Z,42.75
2018-05-16T05:45:04.381Z,37.83
2018-05-16T05:47:31.942Z,37.55
2018-05-16T05:49:59.480Z,36.80
2018-05-16T05:52:27.027Z,37.55
2018-05-16T05:54:55.317Z,40.42
2018-05-16T05:57:22.912Z,38.40
2018-05-16T05:59:50.464Z,37.85
2018-05-16T06:02:17.979Z,39.58
2018-05-16T06:04:46.311Z,39.10
2018-05-16T06:07:13.880Z,45.90
2018-05-16T06:09:41.391Z,37.77
2018-05-16T06:12:09.759Z,38.08
2018-05-16T06:14:37.313Z,37.15
2018-05-16T06:17:05.612Z,36.33
2018-05-16T06:19:33.926Z,36.28
2018-05-16T06:22:01.474Z,36.85
2018-05-16T06:24:29.093Z,37.30
2018-05-16T06:26:57.486Z,36.80
2018-05-16T06:29:25.016Z,36.53
2018-05-16T06:31:52.534Z,34.38
2018-05-16T06:34:20.087Z,39.15
2018-05-16T06:36:47.633Z,35.88
2018-05-16T06:39:15.225Z,37.07
2018-05-16T06:41:42.718Z,35.60
2018-05-16T06:44:10.294Z,37.40
2018-05-16T06:46:38.580Z,35.95
2018-05-16T06:49:06.887Z,36.90
2018-05-16T06:51:34.412Z,37.03
2018-05-16T06:54:02.743Z,34.78
2018-05-16T06:56:30.397Z,33.42
2018-05-16T06:58:57.946Z,32.30
2018-05-16T07:01:25.460Z,34.23
2018-05-16T07:03:52.988Z,33.75
2018-05-16T07:06:20.612Z,32.85
2018-05-16T07:08:48.130Z,33.60
2018-05-16T07:11:15.832Z,33.72
2018-05-16T07:13:43.427Z,31.37
2018-05-16T07:16:11.744Z,31.77
2018-05-16T07:18:39.260Z,30.73
2018-05-16T07:21:06.769Z,33.63
2018-05-16T07:23:34.349Z,32.40
2018-05-16T07:26:01.869Z,29.92
2018-05-16T07:28:29.591Z,28.27
2018-05-16T07:30:57.127Z,28.90
2018-05-16T07:33:24.726Z,27.65
2018-05-16T07:35:52.226Z,29.75
2018-05-16T07:38:19.783Z,30.00
2018-05-16T07:40:47.313Z,28.25
2018-05-16T07:43:14.861Z,25.33
2018-05-16T07:45:42.384Z,24.40
2018-05-16T07:48:09.920Z,27.17
2018-05-16T07:50:37.444Z,23.87
2018-05-16T07:53:05.026Z,22.40
2018-05-16T07:55:32.545Z,22.75
2018-05-16T07:58:00.081Z,19.87
2018-05-16T08:00:27.626Z,22.10
2018-05-16T08:02:55.159Z,21.87
2018-05-16T08:05:22.686Z,20.92
2018-05-16T08:07:50.238Z,20.27
2018-05-16T08:10:17.780Z,22.70
2018-05-16T08:12:45.335Z,21.45
2018-05-16T08:15:13.615Z,22.52
2018-05-16T08:17:41.923Z,21.80
2018-05-16T08:20:09.434Z,22.30
2018-05-16T08:22:36.978Z,19.37
2018-05-16T08:25:04.514Z,21.12
2018-05-16T08:27:32.074Z,19.12
2018-05-16T08:29:59.624Z,19.60
2018-05-16T08:32:27.156Z,20.20
2018-05-16T08:34:54.712Z,19.37
2018-05-16T08:37:22.283Z,19.77
2018-05-16T08:39:49.798Z,19.65
2018-05-16T08:42:17.319Z,22.35
2018-05-16T08:44:44.874Z,22.37
2018-05-16T08:47:12.457Z,21.52
2018-05-16T08:49:40.045Z,18.25
2018-05-16T08:52:07.591Z,20.50
2018-05-16T08:54:35.135Z,20.77
2018-05-16T08:57:02.666Z,16.80
2018-05-16T08:59:30.191Z,17.42
2018-05-16T09:01:57.731Z,17.70
2018-05-16T09:04:25.338Z,18.80
2018-05-16T09:06:52.957Z,17.50
2018-05-16T09:09:20.489Z,15.47
2018-05-16T09:11:48.094Z,16.50
2018-05-16T09:14:15.642Z,17.30
2018-05-16T09:16:43.182Z,16.90
2018-05-16T09:19:11.691Z,18.92
2018-05-16T09:21:39.227Z,15.30
2018-05-16T09:24:06.763Z,13.77
2018-05-16T09:26:34.413Z,13.82
2018-05-16T09:29:01.944Z,12.82
2018-05-16T09:31:29.466Z,12.90
2018-05-16T09:33:57.801Z,14.87
2018-05-16T09:36:26.105Z,13.45
2018-05-16T09:38:53.632Z,13.50
2018-05-16T09:41:22.148Z,13.03
2018-05-16T09:43:49.747Z,14.35
2018-05-16T09:46:17.267Z,14.48
2018-05-16T09:48:44.835Z,10.75
2018-05-16T09:51:12.347Z,12.40
2018-05-16T09:53:39.913Z,12.25
2018-05-16T09:56:08.248Z,11.50
2018-05-16T09:58:35.761Z,12.10
2018-05-16T10:01:03.271Z,9.90
2018-05-16T10:03:30.801Z,9.90
2018-05-16T10:05:58.331Z,10.13
2018-05-16T10:08:25.831Z,9.68
2018-05-16T10:10:53.358Z,9.07
2018-05-16T10:13:21.722Z,9.45
2018-05-16T10:15:51.009Z,8.70
2018-05-16T10:18:18.602Z,9.10
2018-05-16T10:20:46.874Z,9.57
2018-05-16T10:23:15.169Z,9.23
2018-05-16T10:25:42.688Z,9.43
2018-05-16T10:28:10.200Z,11.90
2018-05-16T10:30:37.730Z,8.23
2018-05-16T10:33:06.029Z,8.80
2018-05-16T10:35:33.544Z,8.00
2018-05-16T10:38:01.062Z,7.40
2018-05-16T10:40:28.610Z,6.93
2018-05-16T10:42:56.166Z,7.37
2018-05-16T10:45:23.775Z,7.03
2018-05-16T10:47:51.358Z,8.43
2018-05-16T10:50:19.672Z,7.12
2018-05-16T10:52:47.274Z,6.47
2018-05-16T10:55:14.811Z,7.82
2018-05-16T10:57:42.333Z,13.93
2018-05-16T11:00:09.898Z,7.93
2018-05-16T11:02:37.452Z,7.28
2018-05-16T11:05:04.979Z,7.00
2018-05-16T11:07:32.525Z,7.45
2018-05-16T11:10:00.066Z,7.30
2018-05-16T11:12:27.633Z,7.80
2018-05-16T11:14:55.171Z,7.40
2018-05-16T11:17:22.701Z,79.12
2018-05-16T11:19:51.020Z,1999.90
2018-05-16T11:22:18.591Z,1999.90
2018-05-16T11:24:46.127Z,1999.90
2018-05-16T11:27:13.662Z,1831.07
2018-05-16T11:29:41.230Z,1380.18
2018-05-16T11:32:08.782Z,1215.45
2018-05-16T11:34:36.382Z,1117.47
2018-05-16T11:37:03.919Z,1826.50
2018-05-16T11:39:31.512Z,1320.25
2018-05-16T11:41:59.131Z,1795.15
2018-05-16T11:44:26.676Z,1999.90
2018-05-16T11:46:54.344Z,1999.90
2018-05-16T11:49:22.676Z,1999.90
2018-05-16T11:51:50.214Z,251.25
2018-05-16T11:54:17.747Z,152.23
2018-05-16T11:56:45.366Z,1550.90
2018-05-16T11:59:12.967Z,1567.30
2018-05-16T12:01:40.457Z,1785.18
2018-05-16T12:04:08.066Z,1999.90
2018-05-16T12:06:35.587Z,1999.90
2018-05-16T12:09:03.124Z,1999.90
2018-05-16T12:11:30.678Z,1999.90
2018-05-16T12:13:58.209Z,1999.90
2018-05-16T12:16:25.754Z,1999.90
2018-05-16T12:18:53.297Z,1999.90
2018-05-16T12:21:20.844Z,1999.90
2018-05-16T12:23:48.385Z,1999.90
2018-05-16T12:26:15.992Z,1999.90
2018-05-16T12:28:43.585Z,1999.90
2018-05-16T12:31:11.153Z,1999.90
2018-05-16T12:33:39.723Z,1999.90
2018-05-16T12:36:07.283Z,1999.90
2018-05-16T12:38:35.621Z,1999.90
2018-05-16T12:41:03.200Z,1999.90
2018-05-16T12:43:31.557Z,1999.90
2018-05-16T12:45:59.066Z,1999.90
2018-05-16T12:48:26.619Z,1999.90
2018-05-16T12:50:54.955Z,1999.90
2018-05-16T12:53:22.514Z,1999.90
2018-05-16T12:55:50.165Z,1999.90
2018-05-16T12:58:17.636Z,1999.90
2018-05-16T13:00:45.258Z,1999.90
2018-05-16T13:03:12.841Z,1999.90
2018-05-16T13:05:40.413Z,1999.90
2018-05-16T13:08:08.037Z,1999.90
2018-05-16T13:10:35.604Z,1999.90
2018-05-16T13:13:03.211Z,1999.90
2018-05-16T13:15:30.714Z,1999.90
2018-05-16T13:17:59.137Z,1999.90
2018-05-16T13:20:26.618Z,1999.90
2018-05-16T13:22:54.404Z,1999.90
2018-05-16T13:25:22.142Z,1999.90
2018-05-16T13:27:49.744Z,1999.90
2018-05-16T13:30:17.264Z,1999.90
2018-05-16T13:32:44.803Z,1999.90
2018-05-16T13:35:12.360Z,1999.90
2018-05-16T13:37:39.904Z,1999.90
2018-05-16T13:40:07.460Z,1999.90
2018-05-16T13:42:35.042Z,1999.90
2018-05-16T13:45:02.615Z,1999.90
2018-05-16T13:47:30.262Z,1999.90
2018-05-16T13:49:57.796Z,1999.90
2018-05-16T13:52:26.084Z,1999.90
2018-05-16T13:54:53.624Z,1999.90
2018-05-16T13:57:21.937Z,1999.90
2018-05-16T13:59:49.462Z,1999.90
2018-05-16T14:02:17.918Z,1999.90
2018-05-16T14:04:45.465Z,1999.90
2018-05-16T14:07:13.974Z,1909.03
2018-05-16T14:09:41.534Z,1999.90
2018-05-16T14:12:09.120Z,1485.00
2018-05-16T14:14:36.657Z,1999.90
2018-05-16T14:17:04.323Z,1999.90
2018-05-16T14:19:32.714Z,1999.90
2018-05-16T14:22:00.347Z,1999.90
2018-05-16T14:24:27.998Z,1999.90
2018-05-16T14:26:55.518Z,1999.90
2018-05-16T14:29:23.046Z,1999.90
2018-05-16T14:31:51.337Z,1999.90
2018-05-16T14:34:19.618Z,1999.90
2018-05-16T14:36:47.192Z,1999.90
2018-05-16T14:39:14.757Z,1999.90
2018-05-16T14:41:42.311Z,1999.90
2018-05-16T14:44:09.847Z,1999.90
2018-05-16T14:46:38.402Z,1999.90
2018-05-16T14:49:06.072Z,1999.90
2018-05-16T14:51:33.628Z,1999.90
2018-05-16T14:54:01.199Z,1999.90
2018-05-16T14:56:28.774Z,1999.90
2018-05-16T14:58:57.086Z,1999.90
2018-05-16T15:01:24.636Z,1999.90
2018-05-16T15:03:52.221Z,1999.90
2018-05-16T15:06:19.772Z,1999.90
2018-05-16T15:08:47.298Z,1999.90
2018-05-16T15:11:15.637Z,1999.90
2018-05-16T15:13:43.235Z,1999.90
2018-05-16T15:16:11.693Z,1999.90
2018-05-16T15:18:39.322Z,1999.90
2018-05-16T15:21:06.938Z,1999.90
2018-05-16T15:23:34.464Z,1999.90
2018-05-16T15:26:02.019Z,1999.90
2018-05-16T15:28:29.559Z,1999.90
2018-05-16T15:30:57.089Z,1999.90
2018-05-16T15:33:25.396Z,1999.90
2018-05-16T15:35:52.954Z,1999.90
2018-05-16T15:38:20.601Z,1999.90
2018-05-16T15:40:48.045Z,1999.90
2018-05-16T15:43:16.340Z,1999.90
2018-05-16T15:45:43.908Z,1999.90
2018-05-16T15:48:11.483Z,1999.90
2018-05-16T15:50:39.061Z,1999.90
2018-05-16T15:53:06.608Z,1999.90
2018-05-16T15:55:34.197Z,1999.90
2018-05-16T15:58:01.757Z,984.03
2018-05-16T16:00:29.274Z,1463.40
2018-05-16T16:02:56.821Z,9.30
2018-05-16T16:05:24.338Z,11.95
2018-05-16T16:07:51.966Z,11.38
2018-05-16T16:10:19.509Z,8.10
2018-05-16T16:12:47.371Z,9.45
2018-05-16T16:15:14.947Z,8.00
2018-05-16T16:17:42.468Z,8.50
2018-05-16T16:20:10.769Z,8.20
2018-05-16T16:22:38.345Z,9.30
2018-05-16T16:25:06.387Z,7.10
2018-05-16T16:27:34.006Z,8.20
2018-05-16T16:30:01.603Z,8.98
2018-05-16T16:32:30.019Z,7.57
2018-05-16T16:34:57.609Z,9.30
2018-05-16T16:37:25.244Z,7.30
2018-05-16T16:39:52.787Z,7.50
2018-05-16T16:42:20.325Z,9.48
2018-05-16T16:44:47.982Z,11.60
2018-05-16T16:47:15.777Z,96.73
2018-05-16T16:49:43.303Z,68.40
2018-05-16T16:52:11.741Z,1670.05
2018-05-16T16:54:39.305Z,17.10
2018-05-16T16:57:06.935Z,12.85
2018-05-16T16:59:35.428Z,9.32
2018-05-16T17:02:03.045Z,8.15
2018-05-16T17:04:30.655Z,7.70
2018-05-16T17:06:58.146Z,7.30
2018-05-16T17:09:25.694Z,7.95
2018-05-16T17:11:53.235Z,8.10
2018-05-16T17:14:20.805Z,7.82
2018-05-16T17:16:48.435Z,8.30
2018-05-16T17:19:22.902Z,7.22
2018-05-16T17:21:50.464Z,8.65
2018-05-16T17:24:18.221Z,8.00
2018-05-16T17:26:45.766Z,8.60
2018-05-16T17:29:13.320Z,8.02
2018-05-16T17:31:40.829Z,7.95
2018-05-16T17:34:08.351Z,8.32
2018-05-16T17:36:35.854Z,7.90
2018-05-16T17:39:04.768Z,7.70
2018-05-16T17:41:32.664Z,8.10
2018-05-16T17:44:00.365Z,8.20
2018-05-16T17:46:27.970Z,8.45
2018-05-16T17:48:55.523Z,7.90
2018-05-16T17:51:27.933Z,7.93
2018-05-16T17:54:06.350Z,8.68
2018-05-16T17:56:34.100Z,8.90
2018-05-16T17:59:01.642Z,9.32
2018-05-16T18:01:29.217Z,8.45
2018-05-16T18:03:56.838Z,8.75
2018-05-16T18:06:24.375Z,8.70
2018-05-16T18:08:51.925Z,9.13
2018-05-16T18:11:19.442Z,7.90
2018-05-16T18:13:59.620Z,8.63
2018-05-16T18:16:39.052Z,8.88
2018-05-16T18:19:06.594Z,9.38
2018-05-16T18:21:34.115Z,8.93
2018-05-16T18:24:01.684Z,8.85
2018-05-16T18:26:29.228Z,8.90
2018-05-16T18:28:56.806Z,7.43
2018-05-16T18:31:24.473Z,9.32
2018-05-16T18:33:52.098Z,8.77
2018-05-16T18:36:19.641Z,10.40
2018-05-16T18:38:47.248Z,9.07
2018-05-16T18:41:14.864Z,8.98
2018-05-16T18:43:42.418Z,8.70
2018-05-16T18:46:10.047Z,8.02
2018-05-16T18:48:37.764Z,10.77
2018-05-16T18:51:05.335Z,9.68
2018-05-16T18:53:32.932Z,9.50
2018-05-16T18:56:01.418Z,8.80
2018-05-16T18:58:28.839Z,8.80
2018-05-16T19:00:56.387Z,9.65
2018-05-16T19:03:23.946Z,7.97
2018-05-16T19:05:51.532Z,49.35
2018-05-16T19:08:19.114Z,16.23
2018-05-16T19:10:47.473Z,11.25
2018-05-16T19:13:15.050Z,9.02
2018-05-16T19:15:43.382Z,34.03
2018-05-16T19:18:10.946Z,42.80
2018-05-16T19:20:38.475Z,10.57
2018-05-16T19:23:06.124Z,10.00
2018-05-16T19:25:34.506Z,9.40
2018-05-16T19:28:02.194Z,10.38
2018-05-16T19:30:29.723Z,9.17
2018-05-16T19:32:58.049Z,11.50
2018-05-16T19:35:25.667Z,11.10
2018-05-16T19:37:53.303Z,10.60
2018-05-16T19:40:20.901Z,10.18
2018-05-16T19:42:48.509Z,11.65
2018-05-16T19:45:16.076Z,10.02
2018-05-16T19:47:43.655Z,10.80
2018-05-16T19:50:11.222Z,10.07
2018-05-16T19:52:39.557Z,11.05
2018-05-16T19:55:07.104Z,10.30
2018-05-16T19:57:34.725Z,36.58
2018-05-16T20:00:02.503Z,18.62
2018-05-16T20:02:30.128Z,15.57
2018-05-16T20:04:57.693Z,12.32
2018-05-16T20:07:25.653Z,11.80
2018-05-16T20:09:53.347Z,11.75
2018-05-16T20:12:21.655Z,12.10
2018-05-16T20:14:49.270Z,12.80
2018-05-16T20:17:16.858Z,12.90
2018-05-16T20:19:44.432Z,12.50
2018-05-16T20:22:12.020Z,11.52
2018-05-16T20:24:39.632Z,11.88
2018-05-16T20:27:07.293Z,11.63
2018-05-16T20:29:34.917Z,13.38
2018-05-16T20:32:02.604Z,12.95
2018-05-16T20:34:30.261Z,17.83
2018-05-16T20:36:57.893Z,14.43
2018-05-16T20:39:25.544Z,14.07
2018-05-16T20:41:53.116Z,14.07
2018-05-16T20:44:20.703Z,14.30
2018-05-16T20:46:48.293Z,11.90
2018-05-16T20:49:19.647Z,35.55
2018-05-16T20:51:47.192Z,16.15
2018-05-16T20:54:15.512Z,13.43
2018-05-16T20:56:43.061Z,13.43
2018-05-16T20:59:10.674Z,13.07
2018-05-16T21:01:38.279Z,14.25
2018-05-16T21:04:05.938Z,13.60
2018-05-16T21:06:33.479Z,13.25
2018-05-16T21:09:01.896Z,13.93
2018-05-16T21:11:29.456Z,13.95
2018-05-16T21:13:57.016Z,20.20
2018-05-16T21:16:25.416Z,15.93
2018-05-16T21:18:52.981Z,15.02
2018-05-16T21:21:20.591Z,13.35
2018-05-16T21:23:48.166Z,13.93
2018-05-16T21:26:15.715Z,13.07
2018-05-16T21:28:43.346Z,13.15
2018-05-16T21:31:10.873Z,12.95
2018-05-16T21:33:38.400Z,12.70
2018-05-16T21:36:05.945Z,12.05
2018-05-16T21:38:33.642Z,11.10
2018-05-16T21:41:01.273Z,12.63
2018-05-16T21:43:29.581Z,12.60
2018-05-16T21:45:57.151Z,11.57
2018-05-16T21:48:24.693Z,11.35
2018-05-16T21:50:52.389Z,12.60
2018-05-16T21:53:19.888Z,12.63
2018-05-16T21:55:48.238Z,13.75
2018-05-16T21:58:16.703Z,11.30
2018-05-16T22:00:44.252Z,12.13
2018-05-16T22:03:12.724Z,11.52
2018-05-16T22:05:40.316Z,11.55
2018-05-16T22:08:07.897Z,14.57
2018-05-16T22:10:35.525Z,12.80
2018-05-16T22:13:03.041Z,12.40
2018-05-16T22:15:31.353Z,11.20
2018-05-16T22:17:58.903Z,12.50
2018-05-16T22:20:27.307Z,12.70
2018-05-16T22:22:54.952Z,12.82
2018-05-16T22:25:22.553Z,14.05
2018-05-16T22:27:50.096Z,12.90
2018-05-16T22:30:17.157Z,12.70
2018-05-16T22:32:50.350Z,13.30
2018-05-16T22:35:23.488Z,12.40
2018-05-16T22:37:56.646Z,12.18
2018-05-16T22:40:29.797Z,13.38
2018-05-16T22:42:56.826Z,13.35
2018-05-16T22:45:35.037Z,13.27
2018-05-16T22:48:02.807Z,13.50
2018-05-16T22:50:30.333Z,13.57
2018-05-16T22:52:58.611Z,12.35
2018-05-16T22:55:26.233Z,13.05
2018-05-16T22:57:53.808Z,12.55
2018-05-16T23:00:22.247Z,18.15
2018-05-16T23:02:49.766Z,12.65
2018-05-16T23:05:17.308Z,12.35
2018-05-16T23:07:44.912Z,12.95
2018-05-16T23:10:12.497Z,12.30
2018-05-16T23:12:40.030Z,12.82
2018-05-16T23:15:07.605Z,12.02
2018-05-16T23:17:35.143Z,11.00
2018-05-16T23:20:02.724Z,11.90
2018-05-16T23:22:30.857Z,11.73
2018-05-16T23:24:58.392Z,10.27
2018-05-16T23:27:25.942Z,11.02
2018-05-16T23:29:53.884Z,11.00
2018-05-16T23:32:21.511Z,10.68
2018-05-16T23:34:48.985Z,10.40
2018-05-16T23:37:17.319Z,10.63
2018-05-16T23:39:46.045Z,11.20
2018-05-16T23:42:14.321Z,10.88
2018-05-16T23:44:42.617Z,10.50
2018-05-16T23:47:10.162Z,10.90
2018-05-16T23:49:38.229Z,10.90
2018-05-16T23:52:05.873Z,11.10
2018-05-16T23:54:33.388Z,11.65
2018-05-16T23:57:00.975Z,11.10
2018-05-16T23:59:28.537Z,11.40
